Details From ENVA - Vaernes
To ENKB - Kvernberget
Flight Number -
Tags Routegen Generated
Created
Modified
Stats Distance 85 nm / 157 km
Max Altitude 500 ft / 152 m
Waypoints 9
Social Downloads 3
Likes 0
Share VATSIM

Download

Looking for another format? Having issues loading an existing format? Contact us
Advertisement - Login to hide

Notes

Departing runway 27 ENVA. Arriving runway 7 ENKB.

Route

ENVA +63.46_+010.73 +63.46_+010.70 +63.45_+010.66 +63.45_+010.63 +63.33_+009.58 +63.16_+008.18 +63.16_+008.15 ENKB

ID Type Via Altitude (ft/m) Position (lat/lon) Dist (leg/tot) Name
O ENVA APT - 0 / 0 63.45766 / 10.88929 - / 0 nm
+63.46_+010.73 DME - 500 / 152 63.45789 / 10.72735 4 / 4 nm
+63.46_+010.70 DME - 500 / 152 63.45669 / 10.69507 0 / 5 nm
+63.45_+010.66 DME - 500 / 152 63.45424 / 10.66315 0 / 6 nm
+63.45_+010.63 DME - 500 / 152 63.45055 / 10.63184 0 / 6 nm
+63.33_+009.58 DME - 500 / 152 63.33138 / 9.57745 29 / 36 nm
+63.16_+008.18 DME - 500 / 152 63.16376 / 8.17733 39 / 75 nm
+63.16_+008.15 DME - 500 / 152 63.16036 / 8.14617 0 / 76 nm
O ENKB APT - 0 / 0 63.11458 / 7.84231 8 / 84 nm

Altitude Profile

Advertisement - Login to hide

ENVA

Details ICAO ENVA (TRD)
Name Trondheim Vaernes
Region Norway
Timezone Europe/Oslo (UTC+1.0)
Stats Elevation 56 ft / 17 m (AMSL)
Location 63.457500° 10.924200°
Runways 1
Magnetic Variation 3.919° E

METAR

ENVA 271250Z 15010KT 100V190 CAVOK M01/M11 Q0993 TEMPO 17015G25KT RMK WIND 670FT 17020KT

Decode

TAF

TAF ENVA 2712/2812 13008KT CAVOK TEMPO 2712/2716 17018G32KT

Decode

Departure Runways

ID Width Length Bearing (true/mag) Surface Threshold Overrun Markings Lighting
09 148 ft / 45 m 9,744 ft / 2,970 m 90.18° / 86.26° ASPHALT 830 ft / 253 m 0 ft / 0 m PREC-APP CENTERLINE EDGE THRESHOLD CALVERT REIL-OMNI
27 148 ft / 45 m 9,744 ft / 2,970 m 270.24° / 266.32° ASPHALT 745 ft / 227 m 0 ft / 0 m PREC-APP CENTERLINE EDGE THRESHOLD CALVERT REIL-OMNI

ENKB

Details ICAO ENKB (KSU)
Name KVERNBERGET
Region Norway
Timezone Europe/Oslo (UTC+1.0)
Stats Elevation 204 ft / 62 m (AMSL)
Location 63.111900° 7.824530°
Runways 1
Magnetic Variation 2.411° E

METAR

ENKB 271250Z 15006KT 060V210 9999 FEW027 SCT042 BKN049 01/M06 Q0990 RMK WIND 745FT 15015KT

Decode

TAF

Not found

Destination Runways

ID Width Length Bearing (true/mag) Surface Threshold Overrun Markings Lighting
07 148 ft / 45 m 6,192 ft / 1,887 m 71.39° / 68.98° ASPHALT 197 ft / 60 m 0 ft / 0 m PREC-APP CENTERLINE EDGE THRESHOLD MALS
25 148 ft / 45 m 6,192 ft / 1,887 m 251.42° / 249.01° ASPHALT 263 ft / 80 m 0 ft / 0 m APP CENTERLINE EDGE THRESHOLD

Approach Navaids

Runway Type Ident Frequency Range Bearing (true/mag) Slope Elevation
07 LOC-ILS KB 110.10 MHz 18 nm / 33 km 71.60° / 69.19 ° - 204 ft / 62 m (AMSL)
07 MM MM - - 71.41° / 69.00 ° - 204 ft / 62 m (AMSL)
07 GS KB 110.10 MHz 10 nm / 19 km 71.81° / 69.40 ° 3.00° 204 ft / 62 m (AMSL)
07 OM OM - - 71.41° / 69.00 ° - 204 ft / 62 m (AMSL)

Popular Alternatives